sensor_id;sensor_type;location;lat;lon;timestamp;pressure;altitude;pressure_sealevel;temperature;humidity
55610;BME280;41486;52.502;13.486;2023-09-30T00:00:18;101450.91;;;16.36;100.00
55610;BME280;41486;52.502;13.486;2023-09-30T00:02:46;101451.88;;;16.35;100.00
55610;BME280;41486;52.502;13.486;2023-09-30T00:05:16;101455.25;;;16.37;100.00
55610;BME280;41486;52.502;13.486;2023-09-30T00:07:46;101452.88;;;16.44;100.00
55610;BME280;41486;52.502;13.486;2023-09-30T00:10:14;101452.03;;;16.44;100.00
55610;BME280;41486;52.502;13.486;2023-09-30T00:12:42;101466.59;;;16.49;100.00
55610;BME280;41486;52.502;13.486;2023-09-30T00:15:12;101461.13;;;16.51;100.00
55610;BME280;41486;52.502;13.486;2023-09-30T00:17:40;101474.41;;;16.51;100.00
55610;BME280;41486;52.502;13.486;2023-09-30T00:20:09;101473.88;;;16.57;100.00
55610;BME280;41486;52.502;13.486;2023-09-30T00:22:38;101485.44;;;16.46;100.00
55610;BME280;41486;52.502;13.486;2023-09-30T00:25:07;101475.50;;;16.38;100.00
55610;BME280;41486;52.502;13.486;2023-09-30T00:27:36;101495.91;;;16.38;100.00
55610;BME280;41486;52.502;13.486;2023-09-30T00:30:04;101483.72;;;16.26;100.00
55610;BME280;41486;52.502;13.486;2023-09-30T00:32:33;101495.88;;;16.28;100.00
55610;BME280;41486;52.502;13.486;2023-09-30T00:35:02;101495.97;;;16.17;100.00
55610;BME280;41486;52.502;13.486;2023-09-30T00:37:30;101496.66;;;16.09;100.00
55610;BME280;41486;52.502;13.486;2023-09-30T00:40:00;101492.69;;;16.03;100.00
55610;BME280;41486;52.502;13.486;2023-09-30T00:42:30;101521.19;;;16.01;100.00
55610;BME280;41486;52.502;13.486;2023-09-30T00:44:58;101501.84;;;15.89;100.00
55610;BME280;41486;52.502;13.486;2023-09-30T00:47:26;101512.47;;;15.89;100.00
55610;BME280;41486;52.502;13.486;2023-09-30T00:49:54;101527.44;;;15.79;100.00
55610;BME280;41486;52.502;13.486;2023-09-30T00:52:22;101519.63;;;15.77;100.00
55610;BME280;41486;52.502;13.486;2023-09-30T00:54:51;101518.22;;;15.73;100.00
55610;BME280;41486;52.502;13.486;2023-09-30T00:57:23;101530.63;;;15.73;100.00
55610;BME280;41486;52.502;13.486;2023-09-30T00:59:52;101522.41;;;15.76;100.00
55610;BME280;41486;52.502;13.486;2023-09-30T01:02:21;101526.28;;;15.72;100.00
55610;BME280;41486;52.502;13.486;2023-09-30T01:04:50;101523.72;;;15.60;100.00
55610;BME280;41486;52.502;13.486;2023-09-30T01:07:19;101523.22;;;15.55;100.00
55610;BME280;41486;52.502;13.486;2023-09-30T01:09:48;101529.50;;;15.54;100.00
55610;BME280;41486;52.502;13.486;2023-09-30T01:12:18;101537.00;;;15.49;100.00
55610;BME280;41486;52.502;13.486;2023-09-30T01:14:47;101537.41;;;15.44;100.00
55610;BME280;41486;52.502;13.486;2023-09-30T01:17:15;101546.59;;;15.40;100.00
55610;BME280;41486;52.502;13.486;2023-09-30T01:19:43;101546.00;;;15.37;100.00
55610;BME280;41486;52.502;13.486;2023-09-30T01:22:13;101558.19;;;15.28;100.00
55610;BME280;41486;52.502;13.486;2023-09-30T01:24:42;101547.97;;;15.23;100.00
55610;BME280;41486;52.502;13.486;2023-09-30T01:27:14;101559.06;;;15.17;100.00
55610;BME280;41486;52.502;13.486;2023-09-30T01:29:45;101558.84;;;15.20;100.00
55610;BME280;41486;52.502;13.486;2023-09-30T01:32:14;101563.78;;;15.13;100.00
55610;BME280;41486;52.502;13.486;2023-09-30T01:34:42;101564.63;;;15.14;100.00
55610;BME280;41486;52.502;13.486;2023-09-30T01:37:10;101571.28;;;15.08;100.00
55610;BME280;41486;52.502;13.486;2023-09-30T01:39:41;101579.09;;;15.10;100.00
55610;BME280;41486;52.502;13.486;2023-09-30T01:42:11;101586.22;;;15.09;100.00
55610;BME280;41486;52.502;13.486;2023-09-30T01:44:39;101586.22;;;15.09;100.00
55610;BME280;41486;52.502;13.486;2023-09-30T01:47:07;101594.28;;;15.08;100.00
55610;BME280;41486;52.502;13.486;2023-09-30T01:49:35;101581.53;;;15.02;100.00
55610;BME280;41486;52.502;13.486;2023-09-30T01:52:03;101592.50;;;14.97;100.00
55610;BME280;41486;52.502;13.486;2023-09-30T01:54:31;101598.66;;;14.97;100.00
55610;BME280;41486;52.502;13.486;2023-09-30T01:57:01;101601.75;;;14.91;100.00
55610;BME280;41486;52.502;13.486;2023-09-30T01:59:29;101594.91;;;14.89;100.00
55610;BME280;41486;52.502;13.486;2023-09-30T02:01:57;101604.69;;;14.88;100.00
55610;BME280;41486;52.502;13.486;2023-09-30T02:04:25;101603.94;;;14.86;100.00
55610;BME280;41486;52.502;13.486;2023-09-30T02:06:53;101612.50;;;14.78;100.00
55610;BME280;41486;52.502;13.486;2023-09-30T02:09:21;101608.06;;;14.79;100.00
55610;BME280;41486;52.502;13.486;2023-09-30T02:11:50;101608.19;;;14.77;100.00
55610;BME280;41486;52.502;13.486;2023-09-30T02:14:20;101615.75;;;14.71;100.00
55610;BME280;41486;52.502;13.486;2023-09-30T02:16:48;101616.22;;;14.76;100.00
55610;BME280;41486;52.502;13.486;2023-09-30T02:19:16;101625.75;;;14.67;100.00
55610;BME280;41486;52.502;13.486;2023-09-30T02:21:44;101621.00;;;14.59;100.00
55610;BME280;41486;52.502;13.486;2023-09-30T02:24:13;101633.91;;;14.64;100.00
55610;BME280;41486;52.502;13.486;2023-09-30T02:26:43;101635.59;;;14.54;100.00
55610;BME280;41486;52.502;13.486;2023-09-30T02:29:11;101632.34;;;14.50;100.00
55610;BME280;41486;52.502;13.486;2023-09-30T02:31:41;101625.38;;;14.49;100.00
55610;BME280;41486;52.502;13.486;2023-09-30T02:34:09;101626.81;;;14.42;100.00
55610;BME280;41486;52.502;13.486;2023-09-30T02:36:39;101636.22;;;14.57;100.00
55610;BME280;41486;52.502;13.486;2023-09-30T02:39:08;101641.81;;;14.41;100.00
55610;BME280;41486;52.502;13.486;2023-09-30T02:41:36;101643.38;;;14.44;100.00
55610;BME280;41486;52.502;13.486;2023-09-30T02:44:05;101649.19;;;14.49;100.00
55610;BME280;41486;52.502;13.486;2023-09-30T02:46:36;101652.19;;;14.44;100.00
55610;BME280;41486;52.502;13.486;2023-09-30T02:49:07;101652.28;;;14.43;100.00
55610;BME280;41486;52.502;13.486;2023-09-30T02:51:36;101658.31;;;14.45;100.00
55610;BME280;41486;52.502;13.486;2023-09-30T02:54:05;101663.97;;;14.40;100.00
55610;BME280;41486;52.502;13.486;2023-09-30T02:56:33;101669.75;;;14.34;100.00
55610;BME280;41486;52.502;13.486;2023-09-30T02:59:03;101671.31;;;14.36;100.00
55610;BME280;41486;52.502;13.486;2023-09-30T03:01:33;101668.03;;;14.33;100.00
55610;BME280;41486;52.502;13.486;2023-09-30T03:04:01;101673.22;;;14.34;100.00
55610;BME280;41486;52.502;13.486;2023-09-30T03:06:36;101677.81;;;14.32;100.00
55610;BME280;41486;52.502;13.486;2023-09-30T03:09:05;101669.97;;;14.31;100.00
55610;BME280;41486;52.502;13.486;2023-09-30T03:11:33;101672.59;;;14.31;100.00
55610;BME280;41486;52.502;13.486;2023-09-30T03:14:02;101676.84;;;14.33;100.00
55610;BME280;41486;52.502;13.486;2023-09-30T03:16:30;101681.28;;;14.33;100.00
55610;BME280;41486;52.502;13.486;2023-09-30T03:18:59;101687.88;;;14.27;100.00
55610;BME280;41486;52.502;13.486;2023-09-30T03:21:27;101682.84;;;14.24;100.00
55610;BME280;41486;52.502;13.486;2023-09-30T03:23:56;101684.34;;;14.15;100.00
55610;BME280;41486;52.502;13.486;2023-09-30T03:26:24;101689.69;;;14.27;100.00
55610;BME280;41486;52.502;13.486;2023-09-30T03:28:54;101704.50;;;14.18;100.00
55610;BME280;41486;52.502;13.486;2023-09-30T03:31:22;101704.13;;;14.23;100.00
55610;BME280;41486;52.502;13.486;2023-09-30T03:33:51;101695.69;;;14.17;100.00
55610;BME280;41486;52.502;13.486;2023-09-30T03:36:20;101690.00;;;14.11;100.00
55610;BME280;41486;52.502;13.486;2023-09-30T03:38:49;101690.50;;;14.16;100.00
55610;BME280;41486;52.502;13.486;2023-09-30T03:41:20;101695.28;;;14.11;100.00
55610;BME280;41486;52.502;13.486;2023-09-30T03:43:48;101688.56;;;14.07;100.00
55610;BME280;41486;52.502;13.486;2023-09-30T03:46:17;101695.63;;;14.06;100.00
55610;BME280;41486;52.502;13.486;2023-09-30T03:48:45;101693.84;;;14.07;100.00
55610;BME280;41486;52.502;13.486;2023-09-30T03:51:14;101698.66;;;14.01;100.00
55610;BME280;41486;52.502;13.486;2023-09-30T03:53:43;101699.25;;;14.05;100.00
55610;BME280;41486;52.502;13.486;2023-09-30T03:56:11;101698.75;;;14.00;100.00
55610;BME280;41486;52.502;13.486;2023-09-30T03:58:41;101713.19;;;14.07;100.00
55610;BME280;41486;52.502;13.486;2023-09-30T04:01:11;101702.47;;;13.97;100.00
55610;BME280;41486;52.502;13.486;2023-09-30T04:03:40;101712.72;;;14.02;100.00
55610;BME280;41486;52.502;13.486;2023-09-30T04:06:10;101708.88;;;14.06;100.00
55610;BME280;41486;52.502;13.486;2023-09-30T04:08:39;101713.03;;;13.97;100.00
55610;BME280;41486;52.502;13.486;2023-09-30T04:11:07;101709.66;;;13.95;100.00
55610;BME280;41486;52.502;13.486;2023-09-30T04:13:36;101717.59;;;13.95;100.00
55610;BME280;41486;52.502;13.486;2023-09-30T04:16:05;101718.56;;;13.94;100.00
55610;BME280;41486;52.502;13.486;2023-09-30T04:18:34;101717.78;;;13.81;100.00
55610;BME280;41486;52.502;13.486;2023-09-30T04:21:02;101727.28;;;13.83;100.00
55610;BME280;41486;52.502;13.486;2023-09-30T04:23:30;101730.88;;;13.82;100.00
55610;BME280;41486;52.502;13.486;2023-09-30T04:25:58;101731.34;;;13.76;100.00
55610;BME280;41486;52.502;13.486;2023-09-30T04:28:26;101732.19;;;13.77;100.00
55610;BME280;41486;52.502;13.486;2023-09-30T04:30:55;101738.09;;;13.80;100.00
55610;BME280;41486;52.502;13.486;2023-09-30T04:33:26;101736.63;;;13.76;100.00
55610;BME280;41486;52.502;13.486;2023-09-30T04:35:54;101743.19;;;13.70;100.00
55610;BME280;41486;52.502;13.486;2023-09-30T04:38:22;101746.22;;;13.66;100.00
55610;BME280;41486;52.502;13.486;2023-09-30T04:40:51;101743.66;;;13.64;100.00
55610;BME280;41486;52.502;13.486;2023-09-30T04:43:20;101741.88;;;13.65;100.00
55610;BME280;41486;52.502;13.486;2023-09-30T04:45:48;101745.34;;;13.65;100.00
55610;BME280;41486;52.502;13.486;2023-09-30T04:48:19;101741.75;;;13.66;100.00
55610;BME280;41486;52.502;13.486;2023-09-30T04:50:49;101744.53;;;13.52;100.00
55610;BME280;41486;52.502;13.486;2023-09-30T04:53:17;101735.75;;;13.51;100.00
55610;BME280;41486;52.502;13.486;2023-09-30T04:55:46;101728.75;;;13.50;100.00
55610;BME280;41486;52.502;13.486;2023-09-30T04:58:14;101729.41;;;13.54;100.00
55610;BME280;41486;52.502;13.486;2023-09-30T05:00:42;101731.41;;;13.50;100.00
55610;BME280;41486;52.502;13.486;2023-09-30T05:03:11;101734.06;;;13.50;100.00
55610;BME280;41486;52.502;13.486;2023-09-30T05:05:39;101742.06;;;13.62;100.00
55610;BME280;41486;52.502;13.486;2023-09-30T05:08:09;101749.41;;;13.45;100.00
55610;BME280;41486;52.502;13.486;2023-09-30T05:10:39;101752.69;;;13.49;100.00
55610;BME280;41486;52.502;13.486;2023-09-30T05:13:07;101746.88;;;13.44;100.00
55610;BME280;41486;52.502;13.486;2023-09-30T05:15:35;101748.34;;;13.35;100.00
55610;BME280;41486;52.502;13.486;2023-09-30T05:18:03;101759.66;;;13.37;100.00
55610;BME280;41486;52.502;13.486;2023-09-30T05:20:32;101766.56;;;13.39;100.00
55610;BME280;41486;52.502;13.486;2023-09-30T05:23:00;101768.13;;;13.42;100.00
55610;BME280;41486;52.502;13.486;2023-09-30T05:25:29;101765.47;;;13.42;100.00
55610;BME280;41486;52.502;13.486;2023-09-30T05:27:57;101758.06;;;13.34;100.00
55610;BME280;41486;52.502;13.486;2023-09-30T05:30:25;101757.56;;;13.29;100.00
55610;BME280;41486;52.502;13.486;2023-09-30T05:32:53;101770.69;;;13.44;100.00
55610;BME280;41486;52.502;13.486;2023-09-30T05:35:21;101778.69;;;13.42;100.00
55610;BME280;41486;52.502;13.486;2023-09-30T05:37:50;101782.63;;;13.36;100.00
55610;BME280;41486;52.502;13.486;2023-09-30T05:40:20;101784.00;;;13.42;100.00
55610;BME280;41486;52.502;13.486;2023-09-30T05:42:53;101787.50;;;13.43;100.00
55610;BME280;41486;52.502;13.486;2023-09-30T05:45:22;101794.69;;;13.40;100.00
55610;BME280;41486;52.502;13.486;2023-09-30T05:47:52;101801.34;;;13.46;100.00
55610;BME280;41486;52.502;13.486;2023-09-30T05:50:21;101791.91;;;13.42;100.00
55610;BME280;41486;52.502;13.486;2023-09-30T05:52:53;101789.81;;;13.47;100.00
55610;BME280;41486;52.502;13.486;2023-09-30T05:55:22;101789.69;;;13.49;100.00
55610;BME280;41486;52.502;13.486;2023-09-30T05:57:53;101794.66;;;13.53;100.00
55610;BME280;41486;52.502;13.486;2023-09-30T06:00:23;101813.19;;;13.53;100.00
55610;BME280;41486;52.502;13.486;2023-09-30T06:02:56;101823.13;;;13.63;100.00
55610;BME280;41486;52.502;13.486;2023-09-30T06:05:24;101820.59;;;13.61;100.00
55610;BME280;41486;52.502;13.486;2023-09-30T06:07:56;101818.03;;;13.60;100.00
55610;BME280;41486;52.502;13.486;2023-09-30T06:10:24;101824.38;;;13.70;100.00
55610;BME280;41486;52.502;13.486;2023-09-30T06:12:54;101816.22;;;13.73;100.00
55610;BME280;41486;52.502;13.486;2023-09-30T06:15:24;101810.16;;;13.84;100.00
55610;BME280;41486;52.502;13.486;2023-09-30T06:17:54;101810.78;;;13.87;100.00
55610;BME280;41486;52.502;13.486;2023-09-30T06:20:23;101815.22;;;13.87;100.00
55610;BME280;41486;52.502;13.486;2023-09-30T06:22:54;101830.00;;;14.02;100.00
55610;BME280;41486;52.502;13.486;2023-09-30T06:25:22;101833.09;;;13.96;100.00
55610;BME280;41486;52.502;13.486;2023-09-30T06:27:52;101824.19;;;13.97;100.00
55610;BME280;41486;52.502;13.486;2023-09-30T06:30:21;101827.97;;;14.06;100.00
55610;BME280;41486;52.502;13.486;2023-09-30T06:32:57;101837.63;;;13.94;100.00
55610;BME280;41486;52.502;13.486;2023-09-30T06:35:27;101838.81;;;13.90;100.00
55610;BME280;41486;52.502;13.486;2023-09-30T06:37:56;101850.53;;;13.99;100.00
55610;BME280;41486;52.502;13.486;2023-09-30T06:40:24;101845.88;;;14.02;100.00
55610;BME280;41486;52.502;13.486;2023-09-30T06:42:52;101846.06;;;14.12;100.00
55610;BME280;41486;52.502;13.486;2023-09-30T06:45:22;101854.00;;;14.12;100.00
55610;BME280;41486;52.502;13.486;2023-09-30T06:47:51;101852.34;;;13.98;100.00
55610;BME280;41486;52.502;13.486;2023-09-30T06:50:20;101852.97;;;14.02;100.00
55610;BME280;41486;52.502;13.486;2023-09-30T06:52:48;101863.56;;;14.02;100.00
55610;BME280;41486;52.502;13.486;2023-09-30T06:55:17;101871.03;;;14.21;100.00
55610;BME280;41486;52.502;13.486;2023-09-30T06:57:45;101867.13;;;14.14;100.00
55610;BME280;41486;52.502;13.486;2023-09-30T07:00:14;101873.78;;;14.19;100.00
55610;BME280;41486;52.502;13.486;2023-09-30T07:02:47;101861.00;;;14.13;100.00
55610;BME280;41486;52.502;13.486;2023-09-30T07:05:16;101867.72;;;14.30;100.00
55610;BME280;41486;52.502;13.486;2023-09-30T07:07:44;101874.81;;;14.30;100.00
55610;BME280;41486;52.502;13.486;2023-09-30T07:10:12;101876.16;;;14.35;100.00
55610;BME280;41486;52.502;13.486;2023-09-30T07:12:41;101882.53;;;14.33;100.00
55610;BME280;41486;52.502;13.486;2023-09-30T07:15:10;101891.31;;;14.33;100.00
55610;BME280;41486;52.502;13.486;2023-09-30T07:17:38;101887.78;;;14.46;100.00
55610;BME280;41486;52.502;13.486;2023-09-30T07:20:12;101899.19;;;14.46;100.00
55610;BME280;41486;52.502;13.486;2023-09-30T07:22:40;101896.53;;;14.46;100.00
55610;BME280;41486;52.502;13.486;2023-09-30T07:25:21;101902.75;;;14.58;100.00
55610;BME280;41486;52.502;13.486;2023-09-30T07:27:49;101892.53;;;14.54;100.00
55610;BME280;41486;52.502;13.486;2023-09-30T07:30:19;101907.97;;;14.60;100.00
55610;BME280;41486;52.502;13.486;2023-09-30T07:32:47;101909.03;;;14.57;100.00
55610;BME280;41486;52.502;13.486;2023-09-30T07:35:17;101907.56;;;14.53;100.00
55610;BME280;41486;52.502;13.486;2023-09-30T07:37:45;101914.00;;;14.62;100.00
55610;BME280;41486;52.502;13.486;2023-09-30T07:40:13;101913.47;;;14.57;100.00
55610;BME280;41486;52.502;13.486;2023-09-30T07:42:41;101907.19;;;14.71;100.00
55610;BME280;41486;52.502;13.486;2023-09-30T07:45:10;101924.47;;;14.63;100.00
55610;BME280;41486;52.502;13.486;2023-09-30T07:47:44;101921.53;;;14.68;100.00
55610;BME280;41486;52.502;13.486;2023-09-30T07:50:13;101925.16;;;14.78;100.00
55610;BME280;41486;52.502;13.486;2023-09-30T07:52:44;101923.88;;;14.84;100.00
55610;BME280;41486;52.502;13.486;2023-09-30T07:55:13;101922.91;;;14.85;100.00
55610;BME280;41486;52.502;13.486;2023-09-30T07:57:42;101926.31;;;14.87;100.00
55610;BME280;41486;52.502;13.486;2023-09-30T08:00:12;101933.03;;;14.80;100.00
55610;BME280;41486;52.502;13.486;2023-09-30T08:02:43;101941.59;;;14.83;100.00
55610;BME280;41486;52.502;13.486;2023-09-30T08:05:12;101944.38;;;14.93;100.00
55610;BME280;41486;52.502;13.486;2023-09-30T08:07:40;101937.50;;;14.91;100.00
55610;BME280;41486;52.502;13.486;2023-09-30T08:10:11;101939.59;;;14.98;100.00
55610;BME280;41486;52.502;13.486;2023-09-30T08:12:41;101944.25;;;14.95;100.00
55610;BME280;41486;52.502;13.486;2023-09-30T08:15:11;101945.47;;;14.91;100.00
55610;BME280;41486;52.502;13.486;2023-09-30T08:17:41;101946.34;;;15.03;100.00
55610;BME280;41486;52.502;13.486;2023-09-30T08:20:10;101944.94;;;15.10;100.00
55610;BME280;41486;52.502;13.486;2023-09-30T08:22:45;101954.47;;;15.12;100.00
55610;BME280;41486;52.502;13.486;2023-09-30T08:25:15;101949.63;;;15.06;100.00
55610;BME280;41486;52.502;13.486;2023-09-30T08:27:43;101958.06;;;15.11;100.00
55610;BME280;41486;52.502;13.486;2023-09-30T08:30:12;101958.94;;;15.23;100.00
55610;BME280;41486;52.502;13.486;2023-09-30T08:32:40;101950.94;;;15.48;100.00
55610;BME280;41486;52.502;13.486;2023-09-30T08:35:09;101960.88;;;15.57;100.00
55610;BME280;41486;52.502;13.486;2023-09-30T08:37:38;101958.09;;;15.58;100.00
55610;BME280;41486;52.502;13.486;2023-09-30T08:40:06;101955.78;;;15.54;100.00
55610;BME280;41486;52.502;13.486;2023-09-30T08:42:38;101957.00;;;15.61;100.00
55610;BME280;41486;52.502;13.486;2023-09-30T08:45:10;101964.22;;;15.59;100.00
55610;BME280;41486;52.502;13.486;2023-09-30T08:47:41;101964.47;;;15.67;100.00
55610;BME280;41486;52.502;13.486;2023-09-30T08:50:09;101960.88;;;15.80;100.00
55610;BME280;41486;52.502;13.486;2023-09-30T08:52:38;101961.41;;;15.85;100.00
55610;BME280;41486;52.502;13.486;2023-09-30T08:55:08;101969.63;;;15.93;100.00
55610;BME280;41486;52.502;13.486;2023-09-30T08:57:39;101954.16;;;15.87;100.00
55610;BME280;41486;52.502;13.486;2023-09-30T09:00:09;101962.06;;;15.75;100.00
55610;BME280;41486;52.502;13.486;2023-09-30T09:02:40;101959.06;;;15.69;100.00
55610;BME280;41486;52.502;13.486;2023-09-30T09:05:09;101960.78;;;15.70;100.00
55610;BME280;41486;52.502;13.486;2023-09-30T09:07:39;101958.34;;;15.67;100.00
55610;BME280;41486;52.502;13.486;2023-09-30T09:10:11;101967.03;;;15.69;100.00
55610;BME280;41486;52.502;13.486;2023-09-30T09:12:42;101955.06;;;15.74;100.00
55610;BME280;41486;52.502;13.486;2023-09-30T09:15:21;101952.00;;;15.92;100.00
55610;BME280;41486;52.502;13.486;2023-09-30T09:17:49;101952.13;;;16.02;100.00
55610;BME280;41486;52.502;13.486;2023-09-30T09:20:19;101952.84;;;16.04;100.00
55610;BME280;41486;52.502;13.486;2023-09-30T09:22:49;101957.91;;;16.07;100.00
55610;BME280;41486;52.502;13.486;2023-09-30T09:25:20;101948.59;;;16.24;100.00
55610;BME280;41486;52.502;13.486;2023-09-30T09:27:51;101950.66;;;16.20;100.00
55610;BME280;41486;52.502;13.486;2023-09-30T09:30:22;101952.94;;;16.25;100.00
55610;BME280;41486;52.502;13.486;2023-09-30T09:32:58;101947.84;;;16.45;100.00
55610;BME280;41486;52.502;13.486;2023-09-30T09:35:27;101951.94;;;16.49;100.00
55610;BME280;41486;52.502;13.486;2023-09-30T09:37:58;101959.31;;;16.45;100.00
55610;BME280;41486;52.502;13.486;2023-09-30T09:40:28;101953.88;;;16.47;100.00
55610;BME280;41486;52.502;13.486;2023-09-30T09:42:58;101953.34;;;16.64;100.00
55610;BME280;41486;52.502;13.486;2023-09-30T09:45:29;101956.94;;;16.75;100.00
55610;BME280;41486;52.502;13.486;2023-09-30T09:48:00;101955.00;;;16.77;100.00
55610;BME280;41486;52.502;13.486;2023-09-30T09:50:31;101950.84;;;16.95;100.00
55610;BME280;41486;52.502;13.486;2023-09-30T09:53:00;101949.63;;;16.99;100.00
55610;BME280;41486;52.502;13.486;2023-09-30T09:55:28;101955.69;;;17.01;100.00
55610;BME280;41486;52.502;13.486;2023-09-30T09:57:59;101950.44;;;17.11;100.00
55610;BME280;41486;52.502;13.486;2023-09-30T10:00:29;101950.44;;;17.11;100.00
55610;BME280;41486;52.502;13.486;2023-09-30T10:02:58;101950.06;;;17.37;100.00
55610;BME280;41486;52.502;13.486;2023-09-30T10:05:27;101953.03;;;17.44;100.00
55610;BME280;41486;52.502;13.486;2023-09-30T10:07:59;101952.19;;;17.64;100.00
55610;BME280;41486;52.502;13.486;2023-09-30T10:10:28;101956.47;;;17.56;100.00
55610;BME280;41486;52.502;13.486;2023-09-30T10:12:59;101961.47;;;17.49;99.84
55610;BME280;41486;52.502;13.486;2023-09-30T10:15:38;101962.25;;;17.61;100.00
55610;BME280;41486;52.502;13.486;2023-09-30T10:18:09;101956.22;;;17.59;100.00
55610;BME280;41486;52.502;13.486;2023-09-30T10:20:43;101947.28;;;17.70;99.10
55610;BME280;41486;52.502;13.486;2023-09-30T10:23:19;101938.28;;;17.61;99.07
55610;BME280;41486;52.502;13.486;2023-09-30T10:25:48;101948.97;;;17.71;97.14
55610;BME280;41486;52.502;13.486;2023-09-30T10:28:37;101952.22;;;17.74;96.07
55610;BME280;41486;52.502;13.486;2023-09-30T10:31:13;101952.53;;;17.81;96.90
55610;BME280;41486;52.502;13.486;2023-09-30T10:34:20;101941.50;;;17.86;89.95
55610;BME280;41486;52.502;13.486;2023-09-30T10:36:49;101953.91;;;17.96;90.16
55610;BME280;41486;52.502;13.486;2023-09-30T10:39:54;101955.09;;;17.92;89.47
55610;BME280;41486;52.502;13.486;2023-09-30T10:42:48;101952.78;;;17.99;85.78
55610;BME280;41486;52.502;13.486;2023-09-30T10:45:44;101953.03;;;17.96;85.20
55610;BME280;41486;52.502;13.486;2023-09-30T10:48:32;101954.66;;;18.08;84.47
55610;BME280;41486;52.502;13.486;2023-09-30T10:51:10;101965.69;;;18.04;83.06
55610;BME280;41486;52.502;13.486;2023-09-30T10:53:44;101961.34;;;18.03;84.81
55610;BME280;41486;52.502;13.486;2023-09-30T10:56:14;101952.28;;;18.15;80.32
55610;BME280;41486;52.502;13.486;2023-09-30T10:58:45;101960.03;;;18.28;79.88
55610;BME280;41486;52.502;13.486;2023-09-30T11:01:16;101968.06;;;18.07;80.88
55610;BME280;41486;52.502;13.486;2023-09-30T11:03:46;101971.22;;;18.22;81.47
55610;BME280;41486;52.502;13.486;2023-09-30T11:06:18;101951.19;;;18.18;81.16
55610;BME280;41486;52.502;13.486;2023-09-30T11:08:51;101959.38;;;18.45;81.27
55610;BME280;41486;52.502;13.486;2023-09-30T11:11:32;101954.66;;;18.69;76.20
55610;BME280;41486;52.502;13.486;2023-09-30T11:14:03;101959.41;;;18.75;74.22
55610;BME280;41486;52.502;13.486;2023-09-30T11:16:43;101962.09;;;18.65;74.28
55610;BME280;41486;52.502;13.486;2023-09-30T11:19:12;101958.84;;;18.62;75.24
55610;BME280;41486;52.502;13.486;2023-09-30T11:21:43;101953.09;;;18.76;74.21
55610;BME280;41486;52.502;13.486;2023-09-30T11:24:13;101951.13;;;18.68;74.16
55610;BME280;41486;52.502;13.486;2023-09-30T11:26:42;101945.94;;;18.67;74.08
55610;BME280;41486;52.502;13.486;2023-09-30T11:29:11;101947.06;;;18.84;71.67
55610;BME280;41486;52.502;13.486;2023-09-30T11:31:40;101952.56;;;18.92;70.69
55610;BME280;41486;52.502;13.486;2023-09-30T11:34:11;101941.78;;;18.94;70.36
55610;BME280;41486;52.502;13.486;2023-09-30T11:36:40;101935.72;;;19.01;72.57
55610;BME280;41486;52.502;13.486;2023-09-30T11:39:20;101944.97;;;19.17;72.44
55610;BME280;41486;52.502;13.486;2023-09-30T11:41:49;101945.09;;;19.25;69.90
55610;BME280;41486;52.502;13.486;2023-09-30T11:44:19;101936.84;;;19.18;69.49
55610;BME280;41486;52.502;13.486;2023-09-30T11:46:48;101940.59;;;19.35;69.22
55610;BME280;41486;52.502;13.486;2023-09-30T11:49:26;101939.84;;;19.63;68.51
55610;BME280;41486;52.502;13.486;2023-09-30T11:51:55;101932.66;;;19.63;68.69
55610;BME280;41486;52.502;13.486;2023-09-30T11:54:28;101923.31;;;19.87;66.39
55610;BME280;41486;52.502;13.486;2023-09-30T11:56:56;101930.22;;;19.90;62.15
55610;BME280;41486;52.502;13.486;2023-09-30T11:59:25;101920.81;;;19.76;59.94
55610;BME280;41486;52.502;13.486;2023-09-30T12:01:53;101921.78;;;19.84;59.61
55610;BME280;41486;52.502;13.486;2023-09-30T12:04:42;101924.50;;;20.48;57.65
55610;BME280;41486;52.502;13.486;2023-09-30T12:07:11;101921.97;;;21.46;54.45
55610;BME280;41486;52.502;13.486;2023-09-30T12:09:40;101921.72;;;22.34;51.65
55610;BME280;41486;52.502;13.486;2023-09-30T12:12:08;101917.13;;;22.10;51.59
55610;BME280;41486;52.502;13.486;2023-09-30T12:14:37;101912.47;;;22.29;51.75
55610;BME280;41486;52.502;13.486;2023-09-30T12:17:05;101925.81;;;22.47;50.61
55610;BME280;41486;52.502;13.486;2023-09-30T12:19:37;101927.47;;;22.56;51.29
55610;BME280;41486;52.502;13.486;2023-09-30T12:22:06;101927.31;;;22.49;51.00
55610;BME280;41486;52.502;13.486;2023-09-30T12:24:34;101919.59;;;22.63;50.68
55610;BME280;41486;52.502;13.486;2023-09-30T12:27:03;101913.38;;;23.04;47.58
55610;BME280;41486;52.502;13.486;2023-09-30T12:29:31;101918.75;;;23.37;46.34
55610;BME280;41486;52.502;13.486;2023-09-30T12:31:59;101905.53;;;22.77;45.96
55610;BME280;41486;52.502;13.486;2023-09-30T12:34:28;101914.75;;;23.08;45.73
55610;BME280;41486;52.502;13.486;2023-09-30T12:36:59;101913.06;;;22.98;45.55
55610;BME280;41486;52.502;13.486;2023-09-30T12:39:29;101912.06;;;22.91;45.74
55610;BME280;41486;52.502;13.486;2023-09-30T12:42:00;101909.66;;;22.30;46.62
55610;BME280;41486;52.502;13.486;2023-09-30T12:44:28;101897.56;;;22.34;47.34
55610;BME280;41486;52.502;13.486;2023-09-30T12:46:56;101893.19;;;22.25;48.52